Date,TemperatureHighF,TemperatureAvgF,TemperatureLowF,DewpointHighF,DewpointAvgF,DewpointLowF,HumidityHigh,HumidityAvg,HumidityLow,PressureMaxIn,PressureMinIn,WindSpeedMaxMPH,WindSpeedAvgMPH,GustSpeedMaxMPH,PrecipitationSumIn
2013-1-1,48,45,42,48,39,27,99,79,52,29.90,29.71,15,5,15,0.09
2013-1-2,48,43,38,46,38,30,99,81,60,29.99,29.70,13,3,13,0.01
2013-1-3,42,38,33,33,29,23,82,70,59,30.06,29.92,5,2,5,0.00
2013-1-4,51,37,29,23,19,15,67,49,26,30.15,30.02,17,5,17,0.00
2013-1-5,53,39,28,27,20,16,61,48,25,30.22,29.97,9,3,9,0.00
2013-1-6,56,44,38,37,33,26,82,65,46,29.99,29.86,8,2,8,0.01
2013-1-7,54,41,31,30,26,22,71,57,38,30.26,29.98,13,2,13,0.00
2013-1-8,54,42,28,39,32,22,83,69,54,30.22,30.13,8,2,8,0.00
2013-1-9,46,45,42,38,37,36,81,75,72,30.17,30.13,4,2,4,0.00
2013-1-10,61,53,44,49,39,31,87,61,33,30.30,30.18,8,1,8,0.00
2013-1-11,47,43,40,44,41,36,99,92,73,30.17,29.94,10,2,10,0.06
2013-1-12,66,54,45,61,53,44,99,95,81,29.95,29.88,7,2,7,0.02
2013-1-13,73,64,58,61,58,56,97,84,62,29.93,29.85,21,6,21,0.01
2013-1-14,64,61,54,62,59,53,98,93,82,29.95,29.85,22,3,22,0.22
2013-1-15,54,43,40,53,42,40,99,98,95,30.00,29.88,14,5,15,0.30
2013-1-16,48,43,38,48,43,38,99,98,97,29.88,29.72,14,2,14,0.34
2013-1-17,49,42,32,48,41,31,99,97,93,29.97,29.72,32,7,32,1.48
2013-1-18,49,35,30,31,27,22,96,73,41,30.31,29.97,5,0,5,0.18
2013-1-19,52,41,29,31,25,21,73,54,36,30.29,30.07,12,4,13,0.00
2013-1-20,61,49,42,29,25,20,56,40,22,30.07,29.84,17,3,17,0.00
2013-1-21,58,44,30,33,22,7,76,47,21,29.90,29.70,24,6,24,0.00
2013-1-22,38,30,23,10,-4,-10,33,23,18,30.08,29.79,17,6,17,0.00
2013-1-23,44,30,19,15,6,-8,49,36,24,30.14,29.82,19,4,19,0.00
2013-1-24,36,31,23,22,6,-8,61,37,20,30.32,29.74,20,6,20,0.00
2013-1-25,23,21,20,4,1,-3,48,41,33,30.29,30.19,5,1,11,0.00
2013-2-2,40,37,32,14,9,2,40,30,23,30.07,29.85,12,4,18,0.00
2013-2-3,50,38,31,29,24,15,84,59,34,29.84,29.67,15,4,24,0.02
2013-2-4,49,38,28,25,19,14,60,47,31,29.95,29.80,8,2,11,0.00
2013-2-5,61,46,35,33,28,21,66,51,29,29.80,29.71,10,3,14,0.00
2013-2-6,61,48,36,31,25,17,72,44,20,30.10,29.77,9,2,14,0.00
2013-2-7,42,38,35,34,30,22,89,74,47,30.14,29.85,11,4,15,0.78
2013-2-8,58,43,34,45,33,23,94,71,34,29.92,29.68,15,6,27,0.18
2013-2-9,56,42,33,24,15,8,56,36,18,30.18,29.87,13,3,17,0.01
2013-2-10,56,41,28,37,20,10,81,45,21,30.28,29.98,7,0,10,0.11
2013-2-11,56,48,41,55,46,36,98,92,81,29.99,29.77,13,4,17,0.06
2013-2-12,60,50,42,47,27,19,82,42,21,29.94,29.76,11,3,17,0.00
2013-2-13,47,44,38,43,39,31,92,85,65,29.81,29.47,10,2,14,0.26
2013-2-14,54,42,34,33,28,24,76,58,39,29.90,29.67,10,2,14,0.01
2013-2-15,62,47,33,38,31,24,82,56,26,29.95,29.79,12,3,20,0.01
2013-2-16,41,35,28,31,24,7,82,66,40,29.83,29.69,13,3,17,0.02
2013-2-17,39,29,23,9,1,-7,47,30,19,30.08,29.77,17,6,27,0.01
2013-2-18,56,37,20,23,13,0,51,37,21,30.22,30.02,10,2,13,0.00
2013-2-19,48,40,35,43,30,11,93,68,29,30.03,29.67,11,4,17,0.18
2013-2-20,53,40,29,14,10,2,48,29,18,29.97,29.80,10,3,16,0.01
2013-2-21,34,29,29,9,8,2,42,40,25,29.97,29.94,4,0,8,0.00
2013-2-22,29,29,29,8,8,8,41,41,41,29.95,29.95,0,0,1,0.00
2013-2-23,46,36,29,42,25,8,94,66,41,29.95,29.61,4,0,7,0.51
2013-2-24,62,49,38,43,30,18,95,56,19,29.85,29.58,14,4,19,0.00
2013-2-25,44,38,32,24,21,18,63,52,40,29.99,29.83,7,1,9,0.01
2013-2-26,38,35,32,37,31,20,97,85,56,29.92,29.38,11,2,16,0.25
2013-2-27,57,46,37,39,36,32,99,72,44,29.64,29.40,13,4,18,0.00
2013-2-28,48,42,35,36,26,22,74,55,38,29.67,29.48,17,5,21,0.00
2013-3-1,43,40,36,28,25,20,64,55,45,29.71,29.60,11,3,16,0.00
2013-3-2,44,36,32,26,20,15,67,52,39,29.73,29.61,11,2,20,0.01
2013-3-3,44,34,27,20,14,9,53,43,31,29.81,29.65,14,5,18,0.00
2013-3-4,54,39,26,17,10,6,49,32,19,29.95,29.76,12,4,18,0.00
2013-3-5,49,42,37,41,30,13,94,66,35,29.85,29.38,11,1,14,0.32
2013-3-6,47,39,33,38,26,18,94,60,42,29.91,29.37,20,7,29,0.08
2013-3-7,52,40,32,28,24,19,63,53,36,30.08,29.85,11,4,20,0.00
2013-3-8,57,42,30,24,20,17,63,45,22,30.13,29.99,13,3,19,0.00
2013-3-9,66,47,30,31,26,19,69,45,22,30.19,30.04,7,1,8,0.00
2013-3-10,70,53,34,38,31,24,82,46,23,30.13,30.00,6,1,14,0.00
2013-3-11,66,55,43,54,40,21,87,58,39,30.00,29.69,8,2,14,0.02
2013-3-12,65,57,45,58,46,28,99,71,28,29.78,29.54,12,4,17,0.43
2013-3-13,54,43,34,32,23,14,71,47,27,29.96,29.76,17,5,23,0.04
2013-3-14,52,39,28,19,13,7,52,35,20,30.07,29.92,16,5,21,0.01
2013-3-15,63,48,33,36,25,14,57,41,29,29.96,29.70,15,4,24,0.00
2013-3-16,79,63,51,55,45,35,73,53,31,29.70,29.50,18,6,27,0.04
2013-3-17,62,50,38,51,45,37,99,84,66,29.94,29.65,12,2,18,0.00
2013-3-18,39,37,36,39,36,35,99,98,97,29.95,29.65,8,2,14,0.20
2013-3-19,64,48,35,43,27,6,99,57,17,29.85,29.59,17,5,24,0.00
2013-3-20,58,46,35,22,11,0,38,24,18,29.89,29.57,11,3,20,0.00
2013-3-21,46,36,28,27,12,2,60,37,22,29.80,29.55,17,6,24,0.00
2013-3-22,52,36,23,20,11,4,53,36,20,29.89,29.74,12,3,15,0.00
2013-3-23,61,46,36,31,24,18,58,43,28,29.85,29.69,5,1,8,0.00
2013-3-24,44,43,42,33,31,29,70,62,57,29.72,29.66,3,0,5,0.00
2013-3-25,45,38,32,36,28,20,99,71,42,29.65,29.33,15,5,21,0.05
2013-3-26,46,39,33,28,24,21,71,55,42,29.93,29.63,11,5,19,0.08
2013-3-27,49,40,32,25,22,18,70,50,31,30.03,29.88,16,5,21,0.00
2013-3-28,56,42,31,25,21,18,64,44,24,30.07,29.95,13,4,19,0.01
2013-3-29,61,48,34,33,22,15,58,39,20,30.13,29.97,11,2,17,0.00
2013-3-30,68,54,40,38,31,24,62,43,22,30.07,29.85,9,1,14,0.02
2013-3-31,66,55,48,57,50,38,99,86,59,29.85,29.61,9,3,14,0.37
2013-4-1,68,58,47,54,44,35,97,65,33,29.77,29.59,19,4,25,0.02
2013-4-2,62,48,35,35,24,13,75,44,18,30.00,29.76,12,2,17,0.08
2013-4-3,61,48,37,24,17,13,44,30,19,30.14,29.93,9,2,12,0.00
2013-4-4,48,39,34,35,25,7,98,63,21,30.15,29.76,12,3,17,0.73
2013-4-5,67,49,34,48,38,32,99,71,30,29.83,29.68,11,2,14,0.06
2013-4-6,69,54,39,41,33,30,76,48,26,30.10,29.81,8,1,11,0.00
2013-4-7,73,58,42,46,41,32,82,55,32,30.06,29.86,13,3,18,0.01
2013-4-8,80,66,54,58,52,45,91,63,39,29.99,29.85,11,4,19,0.01
2013-4-9,86,72,58,58,54,50,84,57,34,30.05,29.87,12,4,16,0.06
2013-4-10,87,74,62,61,58,55,80,57,34,29.97,29.78,12,4,19,0.00
2013-4-11,83,72,61,66,60,56,90,69,45,29.81,29.60,15,4,28,0.02
2013-4-12,82,70,60,67,57,36,99,67,32,29.61,29.42,18,5,26,0.77
2013-4-13,77,62,46,44,36,26,69,41,18,29.82,29.57,11,3,16,0.08
2013-4-14,80,66,49,51,39,31,66,39,20,29.93,29.77,9,2,12,0.00
2013-4-15,70,59,55,61,56,51,99,88,68,29.99,29.81,8,1,10,0.25
2013-4-16,83,66,54,64,59,53,99,78,48,30.10,29.94,8,1,11,0.00
2013-4-17,84,70,61,63,59,56,90,70,44,30.01,29.85,8,2,12,0.01
2013-4-18,81,71,64,64,60,55,89,71,44,29.97,29.74,8,2,13,0.00
2013-4-19,77,69,66,69,64,60,91,84,72,29.75,29.50,16,4,29,0.01
2013-4-20,65,53,43,47,33,24,74,48,23,30.03,29.62,11,4,14,0.02
2013-4-21,65,51,41,42,35,30,75,56,37,30.30,30.02,11,2,15,0.04
2013-4-22,63,46,37,40,35,24,92,67,26,30.25,30.05,12,3,17,0.02
2013-4-23,72,58,46,54,46,39,91,68,44,30.08,29.87,10,2,16,0.13
2013-4-24,75,63,51,59,54,51,99,76,52,29.92,29.74,18,5,27,0.00
2013-4-25,74,59,46,57,36,17,78,48,13,30.10,29.76,12,3,21,0.00
2013-4-26,72,57,41,44,36,28,80,47,21,30.27,30.03,10,1,14,0.00
2013-4-27,69,60,54,54,48,40,88,64,50,30.14,30.03,8,1,10,0.00
2013-4-28,57,55,54,55,53,52,97,93,86,30.04,29.99,2,0,3,0.33